sensor_id;sensor_type;location;lat;lon;timestamp;P1;durP1;ratioP1;P2;durP2;ratioP2
70213;SDS011;60138;55.808;37.078;2023-04-24T00:01:15;34.43;;;17.77;;
70213;SDS011;60138;55.808;37.078;2023-04-24T00:03:42;35.90;;;19.90;;
70213;SDS011;60138;55.808;37.078;2023-04-24T00:06:08;32.03;;;19.30;;
70213;SDS011;60138;55.808;37.078;2023-04-24T00:08:37;33.70;;;20.33;;
70213;SDS011;60138;55.808;37.078;2023-04-24T00:11:02;34.22;;;20.42;;
70213;SDS011;60138;55.808;37.078;2023-04-24T00:13:28;37.58;;;19.70;;
70213;SDS011;60138;55.808;37.078;2023-04-24T00:15:55;35.85;;;20.42;;
70213;SDS011;60138;55.808;37.078;2023-04-24T00:18:21;39.83;;;24.35;;
70213;SDS011;60138;55.808;37.078;2023-04-24T00:20:47;47.33;;;22.63;;
70213;SDS011;60138;55.808;37.078;2023-04-24T00:23:12;43.53;;;22.57;;
70213;SDS011;60138;55.808;37.078;2023-04-24T00:25:38;46.13;;;22.10;;
70213;SDS011;60138;55.808;37.078;2023-04-24T00:28:04;47.95;;;23.00;;
70213;SDS011;60138;55.808;37.078;2023-04-24T00:30:30;42.67;;;24.02;;
70213;SDS011;60138;55.808;37.078;2023-04-24T00:32:56;38.00;;;23.57;;
70213;SDS011;60138;55.808;37.078;2023-04-24T00:35:23;35.80;;;23.17;;
70213;SDS011;60138;55.808;37.078;2023-04-24T00:37:49;33.10;;;19.85;;
70213;SDS011;60138;55.808;37.078;2023-04-24T00:40:16;42.20;;;20.17;;
70213;SDS011;60138;55.808;37.078;2023-04-24T00:42:43;37.80;;;18.85;;
70213;SDS011;60138;55.808;37.078;2023-04-24T00:45:09;34.28;;;17.67;;
70213;SDS011;60138;55.808;37.078;2023-04-24T00:47:36;36.92;;;17.73;;
70213;SDS011;60138;55.808;37.078;2023-04-24T00:50:03;28.83;;;17.80;;
70213;SDS011;60138;55.808;37.078;2023-04-24T00:52:30;30.65;;;15.65;;
70213;SDS011;60138;55.808;37.078;2023-04-24T00:54:55;25.30;;;13.18;;
70213;SDS011;60138;55.808;37.078;2023-04-24T00:57:21;29.23;;;14.00;;
70213;SDS011;60138;55.808;37.078;2023-04-24T00:59:47;20.63;;;11.40;;
70213;SDS011;60138;55.808;37.078;2023-04-24T01:02:13;22.87;;;10.40;;
70213;SDS011;60138;55.808;37.078;2023-04-24T01:04:39;21.95;;;11.60;;
70213;SDS011;60138;55.808;37.078;2023-04-24T01:07:05;20.70;;;10.15;;
70213;SDS011;60138;55.808;37.078;2023-04-24T01:09:30;21.37;;;9.83;;
70213;SDS011;60138;55.808;37.078;2023-04-24T01:11:57;21.98;;;9.98;;
70213;SDS011;60138;55.808;37.078;2023-04-24T01:14:23;20.80;;;9.45;;
70213;SDS011;60138;55.808;37.078;2023-04-24T01:16:49;21.75;;;10.55;;
70213;SDS011;60138;55.808;37.078;2023-04-24T01:19:15;17.63;;;9.57;;
70213;SDS011;60138;55.808;37.078;2023-04-24T01:21:42;24.73;;;10.40;;
70213;SDS011;60138;55.808;37.078;2023-04-24T01:24:08;18.30;;;9.88;;
70213;SDS011;60138;55.808;37.078;2023-04-24T01:26:34;16.90;;;9.37;;
70213;SDS011;60138;55.808;37.078;2023-04-24T01:29:00;22.45;;;9.85;;
70213;SDS011;60138;55.808;37.078;2023-04-24T01:31:26;20.87;;;7.60;;
70213;SDS011;60138;55.808;37.078;2023-04-24T01:33:51;16.30;;;9.43;;
70213;SDS011;60138;55.808;37.078;2023-04-24T01:36:18;19.70;;;9.07;;
70213;SDS011;60138;55.808;37.078;2023-04-24T01:38:45;17.20;;;9.27;;
70213;SDS011;60138;55.808;37.078;2023-04-24T01:41:10;19.00;;;9.65;;
70213;SDS011;60138;55.808;37.078;2023-04-24T01:43:36;16.60;;;9.27;;
70213;SDS011;60138;55.808;37.078;2023-04-24T01:46:02;27.08;;;10.60;;
70213;SDS011;60138;55.808;37.078;2023-04-24T01:48:28;16.63;;;9.27;;
70213;SDS011;60138;55.808;37.078;2023-04-24T01:50:55;14.70;;;8.90;;
70213;SDS011;60138;55.808;37.078;2023-04-24T01:53:21;16.95;;;8.85;;
70213;SDS011;60138;55.808;37.078;2023-04-24T01:55:47;18.23;;;10.18;;
70213;SDS011;60138;55.808;37.078;2023-04-24T01:58:13;17.23;;;10.43;;
70213;SDS011;60138;55.808;37.078;2023-04-24T02:00:39;18.60;;;9.57;;
70213;SDS011;60138;55.808;37.078;2023-04-24T02:03:05;17.90;;;8.97;;
70213;SDS011;60138;55.808;37.078;2023-04-24T02:05:31;19.15;;;9.15;;
70213;SDS011;60138;55.808;37.078;2023-04-24T02:07:56;21.70;;;10.02;;
70213;SDS011;60138;55.808;37.078;2023-04-24T02:10:22;23.17;;;10.52;;
70213;SDS011;60138;55.808;37.078;2023-04-24T02:12:48;18.05;;;9.07;;
70213;SDS011;60138;55.808;37.078;2023-04-24T02:15:15;18.67;;;10.50;;
70213;SDS011;60138;55.808;37.078;2023-04-24T02:17:41;17.52;;;9.27;;
70213;SDS011;60138;55.808;37.078;2023-04-24T02:20:07;20.37;;;9.70;;
70213;SDS011;60138;55.808;37.078;2023-04-24T02:22:33;14.95;;;9.10;;
70213;SDS011;60138;55.808;37.078;2023-04-24T02:25:01;15.85;;;9.95;;
70213;SDS011;60138;55.808;37.078;2023-04-24T02:27:30;20.45;;;9.73;;
70213;SDS011;60138;55.808;37.078;2023-04-24T02:29:56;17.13;;;8.37;;
70213;SDS011;60138;55.808;37.078;2023-04-24T02:32:22;21.37;;;9.37;;
70213;SDS011;60138;55.808;37.078;2023-04-24T02:34:47;14.65;;;9.70;;
70213;SDS011;60138;55.808;37.078;2023-04-24T02:37:13;21.42;;;10.30;;
70213;SDS011;60138;55.808;37.078;2023-04-24T02:39:39;15.60;;;10.13;;
70213;SDS011;60138;55.808;37.078;2023-04-24T02:42:05;16.65;;;10.02;;
70213;SDS011;60138;55.808;37.078;2023-04-24T02:44:31;15.07;;;9.27;;
70213;SDS011;60138;55.808;37.078;2023-04-24T02:46:56;18.17;;;10.32;;
70213;SDS011;60138;55.808;37.078;2023-04-24T02:49:22;17.93;;;9.03;;
70213;SDS011;60138;55.808;37.078;2023-04-24T02:51:48;18.75;;;9.63;;
70213;SDS011;60138;55.808;37.078;2023-04-24T02:54:14;15.53;;;8.87;;
70213;SDS011;60138;55.808;37.078;2023-04-24T02:56:39;18.75;;;9.55;;
70213;SDS011;60138;55.808;37.078;2023-04-24T02:59:06;18.38;;;10.75;;
70213;SDS011;60138;55.808;37.078;2023-04-24T03:01:32;15.47;;;9.07;;
70213;SDS011;60138;55.808;37.078;2023-04-24T03:03:58;17.67;;;9.90;;
70213;SDS011;60138;55.808;37.078;2023-04-24T03:06:24;22.17;;;9.38;;
70213;SDS011;60138;55.808;37.078;2023-04-24T03:08:51;20.13;;;8.37;;
70213;SDS011;60138;55.808;37.078;2023-04-24T03:11:16;17.13;;;8.85;;
70213;SDS011;60138;55.808;37.078;2023-04-24T03:13:42;18.30;;;10.00;;
70213;SDS011;60138;55.808;37.078;2023-04-24T03:16:08;21.92;;;10.57;;
70213;SDS011;60138;55.808;37.078;2023-04-24T03:18:33;24.53;;;10.97;;
70213;SDS011;60138;55.808;37.078;2023-04-24T03:21:00;18.35;;;9.70;;
70213;SDS011;60138;55.808;37.078;2023-04-24T03:23:27;16.30;;;10.32;;
70213;SDS011;60138;55.808;37.078;2023-04-24T03:25:52;23.00;;;11.70;;
70213;SDS011;60138;55.808;37.078;2023-04-24T03:28:19;22.90;;;11.50;;
70213;SDS011;60138;55.808;37.078;2023-04-24T03:30:52;20.30;;;11.07;;
70213;SDS011;60138;55.808;37.078;2023-04-24T03:33:19;20.05;;;10.00;;
70213;SDS011;60138;55.808;37.078;2023-04-24T03:35:54;17.40;;;10.67;;
70213;SDS011;60138;55.808;37.078;2023-04-24T03:38:21;19.23;;;11.68;;
70213;SDS011;60138;55.808;37.078;2023-04-24T03:41:00;20.90;;;10.75;;
70213;SDS011;60138;55.808;37.078;2023-04-24T03:43:48;23.08;;;10.57;;
70213;SDS011;60138;55.808;37.078;2023-04-24T03:46:14;20.73;;;11.60;;
70213;SDS011;60138;55.808;37.078;2023-04-24T03:48:45;22.30;;;11.60;;
70213;SDS011;60138;55.808;37.078;2023-04-24T03:51:12;19.65;;;12.25;;
70213;SDS011;60138;55.808;37.078;2023-04-24T03:53:42;21.00;;;11.68;;
70213;SDS011;60138;55.808;37.078;2023-04-24T03:56:10;17.52;;;11.18;;
70213;SDS011;60138;55.808;37.078;2023-04-24T03:58:36;23.83;;;11.60;;
70213;SDS011;60138;55.808;37.078;2023-04-24T04:01:02;20.20;;;13.63;;
70213;SDS011;60138;55.808;37.078;2023-04-24T04:03:53;29.33;;;10.90;;
70213;SDS011;60138;55.808;37.078;2023-04-24T04:06:23;19.13;;;12.82;;
70213;SDS011;60138;55.808;37.078;2023-04-24T04:08:50;21.20;;;11.55;;
70213;SDS011;60138;55.808;37.078;2023-04-24T04:11:17;16.30;;;10.20;;
70213;SDS011;60138;55.808;37.078;2023-04-24T04:13:44;18.15;;;10.82;;
70213;SDS011;60138;55.808;37.078;2023-04-24T04:16:10;18.58;;;11.18;;
70213;SDS011;60138;55.808;37.078;2023-04-24T04:18:36;19.38;;;11.77;;
70213;SDS011;60138;55.808;37.078;2023-04-24T04:21:04;20.07;;;11.37;;
70213;SDS011;60138;55.808;37.078;2023-04-24T04:23:30;19.58;;;11.23;;
70213;SDS011;60138;55.808;37.078;2023-04-24T04:26:12;19.65;;;11.35;;
70213;SDS011;60138;55.808;37.078;2023-04-24T04:28:51;20.98;;;11.45;;
70213;SDS011;60138;55.808;37.078;2023-04-24T04:31:18;23.33;;;10.17;;
70213;SDS011;60138;55.808;37.078;2023-04-24T04:33:45;21.08;;;11.45;;
70213;SDS011;60138;55.808;37.078;2023-04-24T04:36:11;18.77;;;11.07;;
70213;SDS011;60138;55.808;37.078;2023-04-24T04:38:41;17.63;;;10.57;;
70213;SDS011;60138;55.808;37.078;2023-04-24T04:41:16;17.77;;;11.30;;
70213;SDS011;60138;55.808;37.078;2023-04-24T04:43:41;22.05;;;11.43;;
70213;SDS011;60138;55.808;37.078;2023-04-24T04:46:08;14.63;;;9.20;;
70213;SDS011;60138;55.808;37.078;2023-04-24T04:49:00;17.10;;;10.35;;
70213;SDS011;60138;55.808;37.078;2023-04-24T04:51:26;17.60;;;10.50;;
70213;SDS011;60138;55.808;37.078;2023-04-24T04:53:52;16.42;;;8.88;;
70213;SDS011;60138;55.808;37.078;2023-04-24T04:56:18;17.00;;;10.40;;
70213;SDS011;60138;55.808;37.078;2023-04-24T04:58:45;15.52;;;9.07;;
70213;SDS011;60138;55.808;37.078;2023-04-24T05:01:14;20.25;;;10.55;;
70213;SDS011;60138;55.808;37.078;2023-04-24T05:03:44;17.67;;;9.47;;
70213;SDS011;60138;55.808;37.078;2023-04-24T05:06:12;18.13;;;10.63;;
70213;SDS011;60138;55.808;37.078;2023-04-24T05:08:39;14.90;;;9.98;;
70213;SDS011;60138;55.808;37.078;2023-04-24T05:11:08;19.15;;;10.35;;
70213;SDS011;60138;55.808;37.078;2023-04-24T05:13:33;21.60;;;11.43;;
70213;SDS011;60138;55.808;37.078;2023-04-24T05:16:01;19.88;;;11.90;;
70213;SDS011;60138;55.808;37.078;2023-04-24T05:18:28;19.67;;;10.80;;
70213;SDS011;60138;55.808;37.078;2023-04-24T05:20:54;16.40;;;10.53;;
70213;SDS011;60138;55.808;37.078;2023-04-24T05:23:20;17.80;;;9.25;;
70213;SDS011;60138;55.808;37.078;2023-04-24T05:25:50;19.38;;;11.18;;
70213;SDS011;60138;55.808;37.078;2023-04-24T05:28:16;20.05;;;9.35;;
70213;SDS011;60138;55.808;37.078;2023-04-24T05:30:44;14.68;;;10.23;;
70213;SDS011;60138;55.808;37.078;2023-04-24T05:33:11;16.80;;;10.17;;
70213;SDS011;60138;55.808;37.078;2023-04-24T05:35:38;17.73;;;9.25;;
70213;SDS011;60138;55.808;37.078;2023-04-24T05:38:05;17.55;;;10.00;;
70213;SDS011;60138;55.808;37.078;2023-04-24T05:40:31;16.90;;;8.57;;
70213;SDS011;60138;55.808;37.078;2023-04-24T05:42:57;19.07;;;8.90;;
70213;SDS011;60138;55.808;37.078;2023-04-24T05:45:23;17.00;;;9.40;;
70213;SDS011;60138;55.808;37.078;2023-04-24T05:47:49;15.43;;;8.30;;
70213;SDS011;60138;55.808;37.078;2023-04-24T05:50:15;14.20;;;9.57;;
70213;SDS011;60138;55.808;37.078;2023-04-24T05:52:41;17.55;;;9.30;;
70213;SDS011;60138;55.808;37.078;2023-04-24T05:55:20;15.73;;;8.45;;
70213;SDS011;60138;55.808;37.078;2023-04-24T05:57:47;17.95;;;9.57;;
70213;SDS011;60138;55.808;37.078;2023-04-24T06:00:13;15.33;;;8.70;;
70213;SDS011;60138;55.808;37.078;2023-04-24T06:02:43;15.15;;;8.80;;
70213;SDS011;60138;55.808;37.078;2023-04-24T06:05:12;14.80;;;8.10;;
70213;SDS011;60138;55.808;37.078;2023-04-24T06:07:37;18.38;;;8.90;;
70213;SDS011;60138;55.808;37.078;2023-04-24T06:10:06;17.60;;;9.68;;
70213;SDS011;60138;55.808;37.078;2023-04-24T06:12:38;19.70;;;9.15;;
70213;SDS011;60138;55.808;37.078;2023-04-24T06:15:09;13.85;;;8.73;;
70213;SDS011;60138;55.808;37.078;2023-04-24T06:18:01;17.88;;;10.30;;
70213;SDS011;60138;55.808;37.078;2023-04-24T06:20:27;17.33;;;9.30;;
70213;SDS011;60138;55.808;37.078;2023-04-24T06:22:53;14.65;;;9.75;;
70213;SDS011;60138;55.808;37.078;2023-04-24T06:25:19;17.70;;;8.45;;
70213;SDS011;60138;55.808;37.078;2023-04-24T06:27:45;12.75;;;7.72;;
70213;SDS011;60138;55.808;37.078;2023-04-24T06:30:11;13.50;;;8.80;;
70213;SDS011;60138;55.808;37.078;2023-04-24T06:32:38;12.70;;;7.97;;
70213;SDS011;60138;55.808;37.078;2023-04-24T06:35:03;16.53;;;7.87;;
70213;SDS011;60138;55.808;37.078;2023-04-24T06:37:29;15.85;;;8.55;;
70213;SDS011;60138;55.808;37.078;2023-04-24T06:39:55;14.43;;;8.80;;
70213;SDS011;60138;55.808;37.078;2023-04-24T06:42:21;15.13;;;8.82;;
70213;SDS011;60138;55.808;37.078;2023-04-24T06:44:48;15.68;;;9.20;;
70213;SDS011;60138;55.808;37.078;2023-04-24T06:47:14;13.27;;;8.43;;
70213;SDS011;60138;55.808;37.078;2023-04-24T06:49:40;17.48;;;7.90;;
70213;SDS011;60138;55.808;37.078;2023-04-24T06:52:06;18.08;;;9.00;;
70213;SDS011;60138;55.808;37.078;2023-04-24T06:54:32;12.73;;;8.32;;
70213;SDS011;60138;55.808;37.078;2023-04-24T06:56:58;16.98;;;8.35;;
70213;SDS011;60138;55.808;37.078;2023-04-24T06:59:24;14.20;;;7.85;;
70213;SDS011;60138;55.808;37.078;2023-04-24T07:01:50;17.93;;;9.70;;
70213;SDS011;60138;55.808;37.078;2023-04-24T07:04:16;21.08;;;8.63;;
70213;SDS011;60138;55.808;37.078;2023-04-24T07:06:43;14.07;;;7.53;;
70213;SDS011;60138;55.808;37.078;2023-04-24T07:09:10;12.82;;;8.65;;
70213;SDS011;60138;55.808;37.078;2023-04-24T07:11:36;17.83;;;8.37;;
70213;SDS011;60138;55.808;37.078;2023-04-24T07:14:01;14.52;;;8.35;;
70213;SDS011;60138;55.808;37.078;2023-04-24T07:16:27;14.90;;;9.05;;
70213;SDS011;60138;55.808;37.078;2023-04-24T07:18:53;12.52;;;7.35;;
70213;SDS011;60138;55.808;37.078;2023-04-24T07:21:19;14.73;;;7.90;;
70213;SDS011;60138;55.808;37.078;2023-04-24T07:23:44;18.13;;;7.28;;
70213;SDS011;60138;55.808;37.078;2023-04-24T07:26:10;14.17;;;6.80;;
70213;SDS011;60138;55.808;37.078;2023-04-24T07:28:36;15.55;;;8.02;;
70213;SDS011;60138;55.808;37.078;2023-04-24T07:31:01;11.57;;;6.57;;
70213;SDS011;60138;55.808;37.078;2023-04-24T07:33:27;14.23;;;7.70;;
70213;SDS011;60138;55.808;37.078;2023-04-24T07:35:53;11.27;;;6.20;;
70213;SDS011;60138;55.808;37.078;2023-04-24T07:38:19;14.98;;;7.00;;
70213;SDS011;60138;55.808;37.078;2023-04-24T07:40:45;17.47;;;6.63;;
70213;SDS011;60138;55.808;37.078;2023-04-24T07:43:10;14.13;;;6.00;;
70213;SDS011;60138;55.808;37.078;2023-04-24T07:45:36;11.33;;;6.40;;
70213;SDS011;60138;55.808;37.078;2023-04-24T07:48:02;12.40;;;5.82;;
70213;SDS011;60138;55.808;37.078;2023-04-24T07:50:28;10.85;;;5.28;;
70213;SDS011;60138;55.808;37.078;2023-04-24T07:52:54;7.07;;;4.23;;
70213;SDS011;60138;55.808;37.078;2023-04-24T07:55:19;9.73;;;5.47;;
70213;SDS011;60138;55.808;37.078;2023-04-24T07:57:45;7.43;;;4.23;;
70213;SDS011;60138;55.808;37.078;2023-04-24T08:00:11;9.02;;;4.13;;
70213;SDS011;60138;55.808;37.078;2023-04-24T08:02:38;11.53;;;5.23;;
70213;SDS011;60138;55.808;37.078;2023-04-24T08:05:04;10.75;;;4.20;;
70213;SDS011;60138;55.808;37.078;2023-04-24T08:07:31;8.27;;;3.47;;
70213;SDS011;60138;55.808;37.078;2023-04-24T08:09:56;8.93;;;4.37;;
70213;SDS011;60138;55.808;37.078;2023-04-24T08:12:22;7.78;;;4.22;;
70213;SDS011;60138;55.808;37.078;2023-04-24T08:14:48;8.00;;;4.10;;
70213;SDS011;60138;55.808;37.078;2023-04-24T08:17:14;6.82;;;3.83;;
70213;SDS011;60138;55.808;37.078;2023-04-24T08:19:40;6.80;;;4.03;;
70213;SDS011;60138;55.808;37.078;2023-04-24T08:22:06;8.15;;;4.75;;
70213;SDS011;60138;55.808;37.078;2023-04-24T08:24:31;12.98;;;4.32;;
70213;SDS011;60138;55.808;37.078;2023-04-24T08:26:57;8.50;;;3.87;;
70213;SDS011;60138;55.808;37.078;2023-04-24T08:29:23;8.15;;;4.10;;
70213;SDS011;60138;55.808;37.078;2023-04-24T08:31:49;9.38;;;4.85;;
70213;SDS011;60138;55.808;37.078;2023-04-24T08:34:15;10.55;;;4.10;;
70213;SDS011;60138;55.808;37.078;2023-04-24T08:36:41;6.23;;;3.70;;
70213;SDS011;60138;55.808;37.078;2023-04-24T08:39:06;8.25;;;4.65;;
70213;SDS011;60138;55.808;37.078;2023-04-24T08:41:33;7.88;;;3.83;;
70213;SDS011;60138;55.808;37.078;2023-04-24T08:44:00;7.53;;;4.15;;
70213;SDS011;60138;55.808;37.078;2023-04-24T08:46:27;7.68;;;4.45;;
70213;SDS011;60138;55.808;37.078;2023-04-24T08:48:54;7.30;;;3.87;;
70213;SDS011;60138;55.808;37.078;2023-04-24T08:51:21;7.90;;;3.70;;
70213;SDS011;60138;55.808;37.078;2023-04-24T08:53:48;8.90;;;3.95;;
70213;SDS011;60138;55.808;37.078;2023-04-24T08:56:16;10.27;;;3.78;;
70213;SDS011;60138;55.808;37.078;2023-04-24T08:58:42;6.80;;;3.73;;
70213;SDS011;60138;55.808;37.078;2023-04-24T09:01:08;8.15;;;4.13;;
70213;SDS011;60138;55.808;37.078;2023-04-24T09:03:34;8.80;;;3.83;;
70213;SDS011;60138;55.808;37.078;2023-04-24T09:06:00;8.80;;;3.38;;
70213;SDS011;60138;55.808;37.078;2023-04-24T09:08:27;8.57;;;3.87;;
70213;SDS011;60138;55.808;37.078;2023-04-24T09:10:53;7.63;;;4.03;;
70213;SDS011;60138;55.808;37.078;2023-04-24T09:13:19;7.65;;;3.92;;
70213;SDS011;60138;55.808;37.078;2023-04-24T09:15:45;8.93;;;4.20;;
70213;SDS011;60138;55.808;37.078;2023-04-24T09:18:11;7.63;;;4.78;;
70213;SDS011;60138;55.808;37.078;2023-04-24T09:23:41;9.68;;;4.03;;
70213;SDS011;60138;55.808;37.078;2023-04-24T09:26:08;8.37;;;3.57;;
70213;SDS011;60138;55.808;37.078;2023-04-24T09:28:35;7.20;;;3.80;;
70213;SDS011;60138;55.808;37.078;2023-04-24T09:31:12;7.13;;;3.20;;
70213;SDS011;60138;55.808;37.078;2023-04-24T09:33:40;10.20;;;4.05;;
70213;SDS011;60138;55.808;37.078;2023-04-24T09:36:18;7.83;;;4.17;;
70213;SDS011;60138;55.808;37.078;2023-04-24T09:38:44;11.35;;;4.53;;
70213;SDS011;60138;55.808;37.078;2023-04-24T09:41:10;6.97;;;4.10;;
70213;SDS011;60138;55.808;37.078;2023-04-24T09:43:38;11.07;;;4.17;;
70213;SDS011;60138;55.808;37.078;2023-04-24T09:46:05;8.10;;;3.95;;
70213;SDS011;60138;55.808;37.078;2023-04-24T09:48:36;9.82;;;3.83;;
70213;SDS011;60138;55.808;37.078;2023-04-24T09:51:03;8.10;;;3.73;;
70213;SDS011;60138;55.808;37.078;2023-04-24T09:53:30;7.75;;;4.15;;
70213;SDS011;60138;55.808;37.078;2023-04-24T09:56:01;11.07;;;4.03;;
70213;SDS011;60138;55.808;37.078;2023-04-24T09:58:28;10.80;;;4.90;;
70213;SDS011;60138;55.808;37.078;2023-04-24T10:00:55;6.53;;;4.10;;
70213;SDS011;60138;55.808;37.078;2023-04-24T10:03:23;9.80;;;3.90;;
70213;SDS011;60138;55.808;37.078;2023-04-24T10:05:51;6.82;;;3.60;;
70213;SDS011;60138;55.808;37.078;2023-04-24T10:08:17;6.20;;;4.13;;
70213;SDS011;60138;55.808;37.078;2023-04-24T10:10:44;10.50;;;4.50;;
70213;SDS011;60138;55.808;37.078;2023-04-24T10:13:11;7.43;;;4.50;;
70213;SDS011;60138;55.808;37.078;2023-04-24T10:15:39;7.78;;;3.90;;
70213;SDS011;60138;55.808;37.078;2023-04-24T10:18:07;9.85;;;4.15;;
70213;SDS011;60138;55.808;37.078;2023-04-24T10:20:34;8.32;;;3.70;;
70213;SDS011;60138;55.808;37.078;2023-04-24T10:23:01;10.93;;;4.30;;
70213;SDS011;60138;55.808;37.078;2023-04-24T10:25:27;6.60;;;3.70;;
70213;SDS011;60138;55.808;37.078;2023-04-24T10:27:57;8.18;;;3.95;;
70213;SDS011;60138;55.808;37.078;2023-04-24T10:30:24;8.10;;;4.28;;
70213;SDS011;60138;55.808;37.078;2023-04-24T10:32:51;5.95;;;3.92;;
70213;SDS011;60138;55.808;37.078;2023-04-24T10:35:17;7.00;;;4.23;;
70213;SDS011;60138;55.808;37.078;2023-04-24T10:37:45;10.55;;;3.80;;
70213;SDS011;60138;55.808;37.078;2023-04-24T10:40:25;8.07;;;4.10;;
70213;SDS011;60138;55.808;37.078;2023-04-24T10:42:52;7.03;;;3.70;;
70213;SDS011;60138;55.808;37.078;2023-04-24T10:45:19;10.23;;;3.80;;
70213;SDS011;60138;55.808;37.078;2023-04-24T10:50:25;10.57;;;4.05;;
70213;SDS011;60138;55.808;37.078;2023-04-24T10:52:52;8.43;;;4.38;;
70213;SDS011;60138;55.808;37.078;2023-04-24T10:58:16;13.70;;;4.25;;
70213;SDS011;60138;55.808;37.078;2023-04-24T11:00:55;8.60;;;4.32;;
70213;SDS011;60138;55.808;37.078;2023-04-24T11:03:31;8.13;;;4.40;;
70213;SDS011;60138;55.808;37.078;2023-04-24T11:06:00;9.43;;;4.28;;
70213;SDS011;60138;55.808;37.078;2023-04-24T11:08:29;7.97;;;4.00;;
70213;SDS011;60138;55.808;37.078;2023-04-24T11:10:59;8.63;;;4.03;;
70213;SDS011;60138;55.808;37.078;2023-04-24T11:18:56;11.20;;;4.43;;
70213;SDS011;60138;55.808;37.078;2023-04-24T11:32:19;7.88;;;4.25;;
70213;SDS011;60138;55.808;37.078;2023-04-24T11:34:51;7.33;;;4.03;;
70213;SDS011;60138;55.808;37.078;2023-04-24T11:37:18;7.60;;;3.90;;
70213;SDS011;60138;55.808;37.078;2023-04-24T11:39:44;7.63;;;3.70;;
70213;SDS011;60138;55.808;37.078;2023-04-24T11:42:10;9.82;;;3.83;;
70213;SDS011;60138;55.808;37.078;2023-04-24T11:44:39;10.07;;;4.13;;
70213;SDS011;60138;55.808;37.078;2023-04-24T11:47:06;6.93;;;4.10;;
70213;SDS011;60138;55.808;37.078;2023-04-24T11:49:33;6.85;;;3.35;;
70213;SDS011;60138;55.808;37.078;2023-04-24T11:52:01;8.18;;;3.50;;
70213;SDS011;60138;55.808;37.078;2023-04-24T11:54:27;7.90;;;3.33;;
70213;SDS011;60138;55.808;37.078;2023-04-24T11:56:53;7.45;;;3.22;;
70213;SDS011;60138;55.808;37.078;2023-04-24T11:59:19;11.82;;;3.70;;
70213;SDS011;60138;55.808;37.078;2023-04-24T12:01:45;11.53;;;4.10;;
70213;SDS011;60138;55.808;37.078;2023-04-24T12:04:12;10.73;;;3.72;;
70213;SDS011;60138;55.808;37.078;2023-04-24T12:06:38;6.88;;;3.58;;
70213;SDS011;60138;55.808;37.078;2023-04-24T12:09:04;9.03;;;3.53;;
70213;SDS011;60138;55.808;37.078;2023-04-24T12:11:30;8.23;;;3.58;;
70213;SDS011;60138;55.808;37.078;2023-04-24T12:13:55;8.27;;;3.67;;
70213;SDS011;60138;55.808;37.078;2023-04-24T12:16:21;9.93;;;3.63;;
70213;SDS011;60138;55.808;37.078;2023-04-24T12:18:51;10.32;;;3.20;;
70213;SDS011;60138;55.808;37.078;2023-04-24T12:21:22;8.17;;;3.70;;
70213;SDS011;60138;55.808;37.078;2023-04-24T12:23:48;8.03;;;3.83;;
70213;SDS011;60138;55.808;37.078;2023-04-24T12:30:27;11.15;;;3.65;;
70213;SDS011;60138;55.808;37.078;2023-04-24T12:32:54;6.22;;;2.97;;
70213;SDS011;60138;55.808;37.078;2023-04-24T12:35:20;10.53;;;3.63;;
70213;SDS011;60138;55.808;37.078;2023-04-24T12:37:48;8.82;;;2.83;;
70213;SDS011;60138;55.808;37.078;2023-04-24T12:40:14;9.07;;;2.65;;
70213;SDS011;60138;55.808;37.078;2023-04-24T12:42:48;11.82;;;3.20;;
70213;SDS011;60138;55.808;37.078;2023-04-24T12:45:15;10.10;;;2.70;;
70213;SDS011;60138;55.808;37.078;2023-04-24T12:47:42;7.25;;;2.90;;
70213;SDS011;60138;55.808;37.078;2023-04-24T12:52:56;6.18;;;2.60;;
70213;SDS011;60138;55.808;37.078;2023-04-24T12:55:22;6.13;;;3.00;;
70213;SDS011;60138;55.808;37.078;2023-04-24T12:57:48;6.15;;;2.80;;
70213;SDS011;60138;55.808;37.078;2023-04-24T13:00:13;5.83;;;2.80;;
70213;SDS011;60138;55.808;37.078;2023-04-24T13:02:39;6.20;;;2.88;;
70213;SDS011;60138;55.808;37.078;2023-04-24T13:05:06;7.30;;;2.88;;
70213;SDS011;60138;55.808;37.078;2023-04-24T13:07:32;6.82;;;3.08;;
70213;SDS011;60138;55.808;37.078;2023-04-24T13:09:58;8.07;;;2.80;;
70213;SDS011;60138;55.808;37.078;2023-04-24T13:12:24;10.40;;;3.40;;
70213;SDS011;60138;55.808;37.078;2023-04-24T13:14:50;10.10;;;3.15;;
70213;SDS011;60138;55.808;37.078;2023-04-24T13:17:15;10.87;;;3.40;;
70213;SDS011;60138;55.808;37.078;2023-04-24T13:19:42;10.32;;;3.00;;
70213;SDS011;60138;55.808;37.078;2023-04-24T13:22:09;7.45;;;3.05;;
70213;SDS011;60138;55.808;37.078;2023-04-24T13:24:36;9.33;;;3.30;;
70213;SDS011;60138;55.808;37.078;2023-04-24T13:27:02;10.68;;;3.20;;
70213;SDS011;60138;55.808;37.078;2023-04-24T13:29:28;7.65;;;2.72;;
70213;SDS011;60138;55.808;37.078;2023-04-24T13:31:54;8.00;;;3.20;;
70213;SDS011;60138;55.808;37.078;2023-04-24T13:34:21;11.30;;;3.00;;
70213;SDS011;60138;55.808;37.078;2023-04-24T13:36:50;11.98;;;3.22;;
70213;SDS011;60138;55.808;37.078;2023-04-24T13:39:17;12.15;;;3.80;;
70213;SDS011;60138;55.808;37.078;2023-04-24T13:41:43;5.13;;;3.00;;
70213;SDS011;60138;55.808;37.078;2023-04-24T13:44:09;7.07;;;2.80;;
70213;SDS011;60138;55.808;37.078;2023-04-24T13:46:34;6.60;;;3.00;;
70213;SDS011;60138;55.808;37.078;2023-04-24T13:49:01;9.82;;;3.65;;
70213;SDS011;60138;55.808;37.078;2023-04-24T13:51:27;12.98;;;3.30;;
70213;SDS011;60138;55.808;37.078;2023-04-24T13:53:53;14.40;;;3.23;;
70213;SDS011;60138;55.808;37.078;2023-04-24T13:56:19;7.78;;;3.03;;
70213;SDS011;60138;55.808;37.078;2023-04-24T13:58:45;7.47;;;3.42;;
70213;SDS011;60138;55.808;37.078;2023-04-24T14:01:11;9.60;;;3.30;;
70213;SDS011;60138;55.808;37.078;2023-04-24T14:03:37;7.80;;;2.85;;
70213;SDS011;60138;55.808;37.078;2023-04-24T14:06:03;7.28;;;3.10;;
70213;SDS011;60138;55.808;37.078;2023-04-24T14:08:29;8.20;;;2.90;;
70213;SDS011;60138;55.808;37.078;2023-04-24T14:10:54;6.80;;;3.30;;
70213;SDS011;60138;55.808;37.078;2023-04-24T14:13:20;8.87;;;3.10;;
70213;SDS011;60138;55.808;37.078;2023-04-24T14:15:46;7.15;;;3.20;;
70213;SDS011;60138;55.808;37.078;2023-04-24T14:18:12;7.03;;;3.55;;
70213;SDS011;60138;55.808;37.078;2023-04-24T14:20:37;8.50;;;3.23;;
70213;SDS011;60138;55.808;37.078;2023-04-24T14:23:03;9.10;;;3.80;;
70213;SDS011;60138;55.808;37.078;2023-04-24T14:25:29;8.80;;;4.10;;
70213;SDS011;60138;55.808;37.078;2023-04-24T14:27:55;8.95;;;4.10;;
70213;SDS011;60138;55.808;37.078;2023-04-24T14:30:21;9.73;;;4.50;;
70213;SDS011;60138;55.808;37.078;2023-04-24T14:32:47;13.32;;;4.07;;
70213;SDS011;60138;55.808;37.078;2023-04-24T14:35:13;7.47;;;3.90;;
70213;SDS011;60138;55.808;37.078;2023-04-24T14:37:39;7.03;;;3.97;;
70213;SDS011;60138;55.808;37.078;2023-04-24T14:40:05;12.73;;;4.25;;
70213;SDS011;60138;55.808;37.078;2023-04-24T14:42:32;10.33;;;3.70;;
70213;SDS011;60138;55.808;37.078;2023-04-24T14:44:59;7.70;;;3.90;;
70213;SDS011;60138;55.808;37.078;2023-04-24T14:47:25;8.07;;;4.03;;
70213;SDS011;60138;55.808;37.078;2023-04-24T14:49:51;10.80;;;4.28;;
70213;SDS011;60138;55.808;37.078;2023-04-24T14:52:16;9.33;;;3.93;;
70213;SDS011;60138;55.808;37.078;2023-04-24T14:54:42;10.48;;;4.25;;